createdAt,value
2023-10-10T00:00:11.814Z,84.70
2023-10-10T00:03:15.744Z,84.60
2023-10-10T00:06:19.769Z,84.60
2023-10-10T00:09:24.855Z,84.70
2023-10-10T00:12:30.359Z,85.00
2023-10-10T00:15:39.639Z,84.90
2023-10-10T00:18:44.775Z,85.00
2023-10-10T00:21:50.137Z,85.20
2023-10-10T00:24:55.135Z,85.20
2023-10-10T00:28:01.268Z,85.20
2023-10-10T00:31:09.832Z,85.10
2023-10-10T00:34:40.867Z,85.10
2023-10-10T00:37:46.075Z,85.30
2023-10-10T00:40:50.807Z,85.20
2023-10-10T00:43:54.552Z,85.30
2023-10-10T00:46:59.239Z,85.30
2023-10-10T00:50:02.401Z,85.30
2023-10-10T00:53:12.893Z,85.20
2023-10-10T00:56:17.561Z,85.10
2023-10-10T00:59:21.317Z,85.10
2023-10-10T01:02:25.053Z,85.10
2023-10-10T01:05:40.779Z,85.20
2023-10-10T01:08:52.079Z,85.20
2023-10-10T01:11:56.865Z,85.30
2023-10-10T01:15:08.546Z,85.30
2023-10-10T01:18:16.616Z,85.30
2023-10-10T01:21:31.869Z,85.30
2023-10-10T01:24:35.104Z,85.40
2023-10-10T01:27:40.776Z,85.50
2023-10-10T01:30:58.856Z,85.40
2023-10-10T01:34:02.086Z,85.40
2023-10-10T01:37:08.965Z,85.40
2023-10-10T01:40:14.456Z,85.60
2023-10-10T01:43:18.308Z,85.40
2023-10-10T01:46:29.019Z,85.40
2023-10-10T01:49:33.171Z,85.40
2023-10-10T01:52:42.455Z,85.50
2023-10-10T01:55:48.777Z,85.50
2023-10-10T01:58:55.087Z,85.60
2023-10-10T02:01:59.077Z,85.40
2023-10-10T02:05:04.753Z,85.40
2023-10-10T02:08:12.987Z,85.30
2023-10-10T02:11:16.206Z,85.30
2023-10-10T02:14:20.306Z,85.40
2023-10-10T02:17:26.509Z,85.40
2023-10-10T02:20:51.040Z,85.40
2023-10-10T02:24:01.011Z,85.50
2023-10-10T02:27:06.525Z,85.50
2023-10-10T02:30:13.641Z,85.60
2023-10-10T02:33:25.587Z,85.80
2023-10-10T02:36:36.102Z,86.00
2023-10-10T02:39:56.469Z,86.00
2023-10-10T02:43:19.933Z,86.10
2023-10-10T02:46:34.860Z,86.30
2023-10-10T02:49:39.305Z,86.40
2023-10-10T02:52:50.825Z,86.40
2023-10-10T02:56:02.651Z,86.40
2023-10-10T02:59:06.554Z,86.40
2023-10-10T03:02:11.592Z,86.30
2023-10-10T03:05:18.278Z,86.40
2023-10-10T03:08:35.725Z,86.30
2023-10-10T03:11:54.213Z,86.30
2023-10-10T03:15:13.780Z,86.20
2023-10-10T03:18:29.659Z,86.20
2023-10-10T03:21:46.188Z,86.20
2023-10-10T03:25:08.553Z,86.20
2023-10-10T03:28:21.952Z,86.20
2023-10-10T03:31:32.824Z,86.20
2023-10-10T03:34:45.737Z,86.30
2023-10-10T03:37:55.977Z,86.40
2023-10-10T03:41:21.862Z,86.50
2023-10-10T03:44:44.155Z,86.50
2023-10-10T03:48:04.677Z,86.50
2023-10-10T03:51:27.720Z,86.40
2023-10-10T03:54:48.279Z,86.30
2023-10-10T03:58:08.865Z,86.30
2023-10-10T04:01:30.705Z,86.40
2023-10-10T04:04:51.461Z,86.30
2023-10-10T04:08:12.457Z,86.40
2023-10-10T04:11:34.365Z,86.40
2023-10-10T04:14:54.999Z,86.40
2023-10-10T04:18:17.620Z,86.40
2023-10-10T04:21:38.303Z,86.50
2023-10-10T04:25:02.179Z,86.40
2023-10-10T04:28:24.014Z,86.50
2023-10-10T04:31:44.411Z,86.40
2023-10-10T04:35:06.061Z,86.40
2023-10-10T04:38:27.097Z,86.60
2023-10-10T04:41:47.342Z,86.50
2023-10-10T04:45:09.650Z,86.50
2023-10-10T04:48:30.225Z,86.50
2023-10-10T04:51:52.638Z,86.50
2023-10-10T04:55:13.031Z,86.50
2023-10-10T04:58:45.263Z,86.50
2023-10-10T05:02:02.245Z,86.50
2023-10-10T05:05:23.562Z,86.50
2023-10-10T05:08:45.259Z,86.50
2023-10-10T05:12:05.909Z,86.50
2023-10-10T05:15:26.773Z,86.60
2023-10-10T05:18:49.457Z,86.60
2023-10-10T05:22:11.508Z,86.60
2023-10-10T05:25:24.206Z,86.60
2023-10-10T05:28:31.212Z,86.60
2023-10-10T05:31:34.321Z,86.50
2023-10-10T05:34:38.354Z,86.50
2023-10-10T05:37:41.857Z,86.60
2023-10-10T05:40:48.365Z,86.50
2023-10-10T05:43:51.797Z,86.50
2023-10-10T05:46:55.197Z,86.50
2023-10-10T05:49:58.748Z,86.50
2023-10-10T05:53:04.791Z,86.50
2023-10-10T05:56:18.777Z,86.60
2023-10-10T05:59:24.948Z,86.50
2023-10-10T06:02:28.546Z,86.50
2023-10-10T06:05:31.792Z,86.50
2023-10-10T06:08:37.348Z,86.50
2023-10-10T06:11:41.918Z,86.50
2023-10-10T06:14:45.059Z,86.60
2023-10-10T06:17:49.799Z,86.60
2023-10-10T06:21:08.758Z,86.60
2023-10-10T06:24:14.480Z,86.60
2023-10-10T06:27:21.795Z,86.90
2023-10-10T06:30:25.855Z,86.90
2023-10-10T06:33:29.946Z,87.30
2023-10-10T06:36:38.513Z,87.30
2023-10-10T06:39:55.514Z,87.30
2023-10-10T06:43:03.372Z,87.30
2023-10-10T06:46:07.154Z,87.20
2023-10-10T06:49:13.380Z,87.10
2023-10-10T06:52:20.238Z,87.10
2023-10-10T06:55:24.363Z,86.90
2023-10-10T06:58:34.759Z,86.70
2023-10-10T07:01:41.127Z,86.50
2023-10-10T07:04:44.198Z,86.20
2023-10-10T07:07:53.314Z,85.70
2023-10-10T07:10:56.551Z,85.70
2023-10-10T07:14:01.269Z,85.70
2023-10-10T07:17:12.506Z,85.30
2023-10-10T07:20:32.913Z,85.50
2023-10-10T07:23:40.443Z,85.10
2023-10-10T07:26:59.630Z,85.00
2023-10-10T07:30:17.617Z,85.10
2023-10-10T07:33:24.852Z,84.80
2023-10-10T07:36:29.347Z,84.80
2023-10-10T07:39:37.114Z,84.60
2023-10-10T07:42:40.203Z,84.50
2023-10-10T07:45:45.613Z,84.50
2023-10-10T07:48:47.677Z,84.60
2023-10-10T07:51:51.041Z,84.60
2023-10-10T07:54:55.024Z,84.10
2023-10-10T07:58:00.412Z,84.60
2023-10-10T08:01:10.853Z,84.60
2023-10-10T08:04:18.112Z,84.70
2023-10-10T08:07:21.888Z,84.50
2023-10-10T08:10:39.371Z,83.60
2023-10-10T08:13:49.809Z,83.50
2023-10-10T08:17:00.662Z,83.30
2023-10-10T08:20:24.362Z,82.80
2023-10-10T08:23:28.541Z,82.50
2023-10-10T08:26:40.281Z,82.70
2023-10-10T08:29:43.551Z,82.80
2023-10-10T08:32:49.850Z,82.00
2023-10-10T08:35:53.094Z,81.20
2023-10-10T08:38:58.370Z,81.40
2023-10-10T08:42:06.480Z,80.90
2023-10-10T08:45:23.545Z,80.50
2023-10-10T08:48:29.744Z,80.10
2023-10-10T08:51:35.468Z,78.90
2023-10-10T08:54:42.184Z,79.10
2023-10-10T08:57:47.026Z,79.30
2023-10-10T09:00:50.422Z,79.00
2023-10-10T09:03:58.722Z,77.90
2023-10-10T09:07:09.780Z,77.90
2023-10-10T09:10:16.178Z,77.80
2023-10-10T09:13:19.996Z,77.70
2023-10-10T09:16:43.406Z,78.30
2023-10-10T09:19:48.953Z,78.50
2023-10-10T09:22:53.809Z,78.00
2023-10-10T09:26:20.357Z,77.10
2023-10-10T09:29:33.651Z,77.00
2023-10-10T09:32:43.809Z,76.70
2023-10-10T09:35:50.082Z,76.70
2023-10-10T09:38:58.755Z,76.70
2023-10-10T09:42:07.759Z,76.40
2023-10-10T09:45:28.286Z,76.40
2023-10-10T09:48:54.998Z,75.70
2023-10-10T09:52:14.234Z,75.60
2023-10-10T09:55:40.318Z,75.30
2023-10-10T09:58:46.057Z,74.30
2023-10-10T10:01:49.702Z,74.60
2023-10-10T10:04:55.110Z,74.60
2023-10-10T10:08:07.873Z,74.20
2023-10-10T10:11:15.756Z,74.10
2023-10-10T10:14:29.743Z,73.40
2023-10-10T10:17:48.578Z,72.70
2023-10-10T10:21:06.883Z,73.10
2023-10-10T10:24:17.884Z,73.40
2023-10-10T10:27:25.904Z,74.40
2023-10-10T10:30:48.025Z,74.50
2023-10-10T10:34:07.883Z,75.00
2023-10-10T10:37:21.051Z,75.70
2023-10-10T10:40:42.802Z,75.40
2023-10-10T10:43:51.171Z,75.70
2023-10-10T10:46:58.229Z,75.20
2023-10-10T10:50:04.082Z,75.70
2023-10-10T10:53:09.777Z,75.80
2023-10-10T10:56:32.963Z,75.50
2023-10-10T10:59:40.706Z,75.70
2023-10-10T11:02:51.115Z,76.20
2023-10-10T11:05:57.195Z,76.20
2023-10-10T11:09:10.908Z,75.90
2023-10-10T11:12:15.715Z,75.80
2023-10-10T11:15:20.313Z,75.90
2023-10-10T11:18:35.949Z,75.00
2023-10-10T11:21:48.621Z,74.50
2023-10-10T11:24:58.959Z,75.00
2023-10-10T11:28:05.357Z,75.00
2023-10-10T11:31:08.919Z,75.70
2023-10-10T11:34:27.202Z,75.90
2023-10-10T11:37:36.123Z,76.40
2023-10-10T11:40:39.170Z,76.60
2023-10-10T11:44:13.982Z,76.90
2023-10-10T11:47:25.718Z,76.60
2023-10-10T11:50:45.468Z,76.60
2023-10-10T11:53:48.528Z,76.60
2023-10-10T11:56:51.585Z,76.40
2023-10-10T11:59:56.018Z,75.90
2023-10-10T12:02:59.256Z,76.00
2023-10-10T12:06:02.508Z,75.70
2023-10-10T12:09:05.880Z,75.80
2023-10-10T12:12:10.933Z,75.80
2023-10-10T12:15:20.851Z,76.10
2023-10-10T12:18:24.174Z,75.80
2023-10-10T12:21:27.703Z,75.70
2023-10-10T12:24:30.729Z,74.20
2023-10-10T12:27:33.744Z,73.80
2023-10-10T12:30:41.704Z,73.90
2023-10-10T12:33:46.771Z,73.40
2023-10-10T12:36:50.456Z,73.60
2023-10-10T12:39:53.787Z,74.40
2023-10-10T12:42:57.330Z,74.40
2023-10-10T12:46:05.760Z,74.60
2023-10-10T12:49:12.713Z,75.00
2023-10-10T12:52:18.446Z,75.30
2023-10-10T12:55:26.724Z,75.40
2023-10-10T12:58:31.558Z,75.20
2023-10-10T13:01:37.157Z,74.00
2023-10-10T13:04:40.305Z,73.90
2023-10-10T13:07:44.712Z,73.50
2023-10-10T13:10:55.579Z,71.90
2023-10-10T13:14:00.690Z,72.00
2023-10-10T13:17:21.708Z,72.20
2023-10-10T13:20:25.391Z,71.50
2023-10-10T13:23:28.568Z,72.30
2023-10-10T13:26:32.948Z,72.40
2023-10-10T13:29:37.809Z,72.60
2023-10-10T13:32:43.162Z,72.30
2023-10-10T13:35:46.561Z,73.20
2023-10-10T13:38:51.822Z,73.30
2023-10-10T13:41:57.921Z,73.00
2023-10-10T13:45:12.197Z,73.00
2023-10-10T13:48:19.362Z,72.50
2023-10-10T13:51:22.959Z,72.90
2023-10-10T13:54:27.809Z,72.50
2023-10-10T13:57:30.899Z,72.80
2023-10-10T14:00:37.418Z,73.30
2023-10-10T14:03:46.985Z,73.20
2023-10-10T14:06:50.253Z,73.30
2023-10-10T14:10:03.038Z,73.80
2023-10-10T14:13:21.145Z,74.00
2023-10-10T14:16:25.442Z,73.60
2023-10-10T14:19:33.933Z,73.60
2023-10-10T14:22:49.874Z,73.50
2023-10-10T14:26:13.957Z,73.20
2023-10-10T14:29:18.534Z,73.00
2023-10-10T14:32:37.475Z,73.10
2023-10-10T14:35:45.078Z,73.30
2023-10-10T14:38:51.093Z,73.80
2023-10-10T14:41:54.247Z,74.10
2023-10-10T14:44:57.301Z,74.10
2023-10-10T14:48:00.658Z,74.00
2023-10-10T14:51:06.713Z,73.80
2023-10-10T14:54:13.301Z,73.70
2023-10-10T14:57:25.674Z,74.10
2023-10-10T15:00:30.423Z,74.40
2023-10-10T15:03:42.469Z,74.50
2023-10-10T15:06:48.465Z,74.40
2023-10-10T15:09:51.745Z,74.70
2023-10-10T15:12:55.067Z,74.80
2023-10-10T15:15:58.111Z,75.00
2023-10-10T15:19:03.121Z,75.00
2023-10-10T15:22:13.707Z,74.90
2023-10-10T15:25:16.933Z,75.00
2023-10-10T15:28:20.148Z,75.00
2023-10-10T15:31:28.080Z,74.80
2023-10-10T15:34:32.215Z,74.70
2023-10-10T15:37:43.333Z,74.90
2023-10-10T15:40:46.496Z,75.00
2023-10-10T15:43:50.524Z,75.10
2023-10-10T15:46:59.665Z,75.40
2023-10-10T15:50:03.357Z,75.50
2023-10-10T15:53:07.843Z,75.90
2023-10-10T15:56:17.174Z,76.40
2023-10-10T15:59:23.746Z,76.60
2023-10-10T16:02:40.802Z,76.80
2023-10-10T16:05:44.536Z,77.10
2023-10-10T16:08:50.782Z,77.20
2023-10-10T16:11:55.613Z,77.20
2023-10-10T16:15:01.519Z,77.30
2023-10-10T16:18:05.594Z,77.50
2023-10-10T16:21:09.831Z,77.70
2023-10-10T16:24:15.999Z,77.90
2023-10-10T16:27:19.624Z,78.10
2023-10-10T16:30:23.359Z,78.20
2023-10-10T16:33:27.545Z,78.60
2023-10-10T16:36:30.947Z,78.70
2023-10-10T16:39:36.578Z,79.00
2023-10-10T16:42:40.383Z,79.20
2023-10-10T16:45:44.729Z,79.30
2023-10-10T16:48:48.943Z,79.30
2023-10-10T16:51:55.675Z,79.40
2023-10-10T16:55:01.060Z,79.80
2023-10-10T16:58:04.565Z,79.80
2023-10-10T17:04:28.321Z,79.90
2023-10-10T17:07:32.097Z,79.90
2023-10-10T17:10:38.288Z,80.00
2023-10-10T17:13:44.927Z,80.00
2023-10-10T17:16:48.519Z,80.00
2023-10-10T17:19:53.835Z,80.00
2023-10-10T17:23:00.862Z,80.20
2023-10-10T17:26:09.411Z,80.20
2023-10-10T17:36:21.619Z,80.50
2023-10-10T17:39:30.221Z,80.50
2023-10-10T17:42:36.225Z,80.50
2023-10-10T17:45:44.270Z,80.50
2023-10-10T17:48:48.808Z,80.50
2023-10-10T17:51:54.660Z,80.50
2023-10-10T17:54:59.243Z,80.70
2023-10-10T17:58:04.647Z,80.80
2023-10-10T18:01:11.327Z,80.80
2023-10-10T18:04:16.762Z,80.90
2023-10-10T18:07:23.548Z,80.90
2023-10-10T18:10:31.479Z,80.90
2023-10-10T18:13:36.818Z,81.10
2023-10-10T18:16:41.087Z,81.20
2023-10-10T18:19:44.816Z,81.20
2023-10-10T18:22:49.792Z,81.20
2023-10-10T18:25:53.488Z,81.00
2023-10-10T18:28:58.357Z,81.00
2023-10-10T18:32:02.144Z,81.00
2023-10-10T18:35:07.250Z,81.10
2023-10-10T18:38:11.712Z,81.10
2023-10-10T18:41:15.412Z,81.10
2023-10-10T18:44:20.774Z,81.10
2023-10-10T18:47:25.683Z,81.10
2023-10-10T18:50:30.674Z,81.60
2023-10-10T18:53:37.717Z,81.60
2023-10-10T18:56:42.178Z,81.50
2023-10-10T18:59:48.261Z,81.50
2023-10-10T19:02:51.532Z,81.50
2023-10-10T19:05:55.238Z,81.50
2023-10-10T19:09:01.431Z,81.50
2023-10-10T19:12:06.734Z,81.60
2023-10-10T19:15:14.173Z,81.80
2023-10-10T19:18:18.750Z,81.70
2023-10-10T19:21:25.086Z,81.80
2023-10-10T19:24:29.403Z,81.80
2023-10-10T19:27:32.467Z,81.80
2023-10-10T19:30:40.652Z,81.90
2023-10-10T19:33:43.985Z,81.90
2023-10-10T19:36:48.808Z,82.00
2023-10-10T19:39:52.426Z,82.00
2023-10-10T19:42:55.875Z,82.10
2023-10-10T19:46:00.479Z,82.10
2023-10-10T19:49:05.862Z,82.10
2023-10-10T19:52:12.344Z,82.10
2023-10-10T19:55:22.398Z,82.10
2023-10-10T19:58:26.337Z,82.20
2023-10-10T20:01:34.784Z,82.30
2023-10-10T20:04:39.626Z,82.30
2023-10-10T20:07:48.314Z,82.30
2023-10-10T20:10:51.891Z,82.40
2023-10-10T20:13:55.324Z,82.40
2023-10-10T20:17:02.352Z,82.50
2023-10-10T20:20:07.152Z,82.50
2023-10-10T20:23:11.101Z,82.60
2023-10-10T20:26:19.034Z,82.60
2023-10-10T20:29:29.970Z,82.70
2023-10-10T20:32:35.965Z,82.60
2023-10-10T20:35:39.145Z,82.70
2023-10-10T20:38:43.998Z,82.70
2023-10-10T20:41:49.491Z,82.70
2023-10-10T20:44:52.810Z,82.80
2023-10-10T20:47:57.939Z,82.80
2023-10-10T20:51:03.947Z,82.80
2023-10-10T20:54:07.918Z,82.80
2023-10-10T20:57:11.124Z,82.90
2023-10-10T21:00:21.680Z,82.90
2023-10-10T21:03:26.875Z,82.90
2023-10-10T21:06:30.150Z,83.00
2023-10-10T21:09:37.116Z,83.00
2023-10-10T21:12:41.426Z,83.00
2023-10-10T21:15:45.586Z,83.10
2023-10-10T21:18:50.188Z,83.10
2023-10-10T21:21:55.747Z,83.20
2023-10-10T21:25:01.115Z,83.40
2023-10-10T21:28:08.402Z,83.30
2023-10-10T21:31:12.136Z,83.70
2023-10-10T21:34:16.801Z,84.10
2023-10-10T21:37:19.925Z,83.90
2023-10-10T21:40:23.327Z,83.80
2023-10-10T21:43:26.442Z,84.00
2023-10-10T21:46:29.496Z,84.10
2023-10-10T21:49:34.226Z,84.00
2023-10-10T21:52:37.472Z,83.90
2023-10-10T21:55:41.988Z,83.90
2023-10-10T21:58:45.132Z,83.80
2023-10-10T22:01:52.788Z,83.80
2023-10-10T22:05:01.620Z,83.90
2023-10-10T22:08:07.714Z,83.90
2023-10-10T22:11:13.725Z,84.00
2023-10-10T22:14:16.731Z,84.00
2023-10-10T22:17:22.827Z,84.00
2023-10-10T22:20:30.205Z,84.00
2023-10-10T22:23:33.317Z,84.00
2023-10-10T22:26:36.509Z,84.10
2023-10-10T22:29:39.623Z,84.10
2023-10-10T22:32:43.864Z,84.00
2023-10-10T22:35:51.063Z,84.10
2023-10-10T22:38:54.220Z,84.10
2023-10-10T22:41:58.374Z,84.10
2023-10-10T22:45:01.739Z,84.10
2023-10-10T22:48:09.232Z,84.10
2023-10-10T22:51:14.864Z,84.20
2023-10-10T22:54:18.076Z,84.30
2023-10-10T22:57:21.226Z,84.30
2023-10-10T23:00:30.151Z,84.40
2023-10-10T23:03:37.166Z,84.40
2023-10-10T23:06:43.108Z,84.50
2023-10-10T23:09:48.489Z,84.60
2023-10-10T23:12:52.487Z,84.50
2023-10-10T23:15:55.720Z,84.60
2023-10-10T23:18:59.205Z,84.60
2023-10-10T23:22:08.867Z,84.60
2023-10-10T23:25:13.622Z,84.70
2023-10-10T23:28:16.674Z,84.70
2023-10-10T23:31:20.090Z,84.80
2023-10-10T23:34:23.508Z,84.80
2023-10-10T23:37:30.897Z,84.90
2023-10-10T23:40:40.226Z,84.90
2023-10-10T23:43:47.407Z,85.00
2023-10-10T23:46:50.592Z,84.90
2023-10-10T23:49:53.962Z,85.00
2023-10-10T23:53:03.220Z,85.00
2023-10-10T23:56:09.577Z,85.10
2023-10-10T23:59:12.642Z,85.10
